首页
METAR-TAF:

METAR-TAF

机场 :

雅蒲島國際機場

雅蒲島, 密克罗尼西亚群岛

纬度: 09-29N, 经度: 138-05E, 海拔: 28米

当前天气观测

该预报发布于1小时和8分钟前的07:52 UTC
风速12节,风向东转东北,有时为15节阵风
温度 28°C
湿度 79%
气压 1010 hPa
能見度: 19.3公里
散云层高于1600英尺, 积雨云.
散云层高于13000英尺
多云层高于30000英尺

METAR: PTYA 030752Z 07012G15KT 12SM SCT016CB SCT130 BKN300 28/24 A2983 RMK CB SE SLP101 T02800235

时间: 19:00 (09:00 UTC)

预报

该预报发布于3小时和36分钟前的05:24 UTC
预报有效从03日的 06点(UTC)到 04日的 06点(UTC)
风速9节,风向东北
能見度: 10公里
少量云层高于1800英尺
多云层高于29000英尺

TAF: PTYA 030524Z 0306/0406 05009KT P6SM FEW018 BKN290

超过4000个机场的气象观测和天气预报(METAR&TAF报告)。

可查询的气象台以黄色和红色小点在地图上表示。

将鼠标移到小点上方,可查看气象台名称。

然后点击查看天气观测和预报。

如需切换地图:点击带黑十字的绿色按钮放大地图;点击带横线的绿色按钮缩小地图;或者点击绿色箭头查看邻近地区的地图。


METAR-TAF: